Time;durP1;ratioP1;P1;durP2;ratioP2;P2;SDS_P1;SDS_P2;PMS_P1;PMS_P2;Temp;Humidity;BMP_temperature;BMP_pressure;BME280_temperature;BME280_humidity;BME280_pressure;Samples;Min_cycle;Max_cycle;Signal;HPM_P1;HPM_P2
2022/02/26 00:02:20;;;;;;;;;;;256.20;1203.20;;;;;;5032553;28;19917;-70
2022/02/26 00:04:46;;;;;;;;;;;256.20;1177.60;;;;;;5033239;28;20355;-68
2022/02/26 00:07:12;;;;;;;;;;;256.20;1177.60;;;;;;5033091;28;19905;-69
2022/02/26 00:09:37;;;;;;;;;;;256.20;1177.60;;;;;;5032837;28;20429;-70
2022/02/26 00:12:03;;;;;;;;;;;256.20;1177.60;;;;;;5036639;28;19996;-69
2022/02/26 00:14:29;;;;;;;;;;;256.20;1203.20;;;;;;5015945;28;19909;-69
2022/02/26 00:16:55;;;;;;;;;;;256.30;1177.60;;;;;;5016747;28;19995;-69
2022/02/26 00:19:20;;;;;;;;;;;256.30;1177.60;;;;;;5034513;28;19912;-68
2022/02/26 00:21:46;;;;;;;;;;;256.20;1203.20;;;;;;5034245;28;19913;-69
2022/02/26 00:24:13;;;;;;;;;;;256.30;1177.60;;;;;;5034155;28;19905;-68
2022/02/26 00:26:38;;;;;;;;;;;256.30;1203.20;;;;;;5034134;28;19956;-68
2022/02/26 00:29:04;;;;;;;;;;;256.30;1203.20;;;;;;5034157;28;19951;-68
2022/02/26 00:31:30;;;;;;;;;;;256.30;1203.20;;;;;;5016651;28;19912;-68
2022/02/26 00:33:55;;;;;;;;;;;256.30;1228.80;;;;;;5034262;28;19905;-68
2022/02/26 00:36:21;;;;;;;;;;;256.30;1228.80;;;;;;5033285;28;20313;-68
2022/02/26 00:38:46;;;;;;;;;;;256.40;1254.40;;;;;;5034207;28;19905;-68
2022/02/26 00:41:12;;;;;;;;;;;256.40;1254.40;;;;;;5034216;28;20331;-68
2022/02/26 00:43:38;;;;;;;;;;;256.40;1280.00;;;;;;5034211;28;19940;-68
2022/02/26 00:46:07;;;;;;;;;;;256.40;1280.00;;;;;;5035324;28;19912;-68
2022/02/26 00:51:17;;;;;;;;;;;256.30;1305.60;;;;;;5054011;28;19911;-68
2022/02/26 00:53:43;;;;;;;;;;;256.40;1280.00;;;;;;5036010;28;20330;-68
2022/02/26 00:56:08;;;;;;;;;;;256.40;1280.00;;;;;;5053674;28;19958;-69
2022/02/26 00:58:34;;;;;;;;;;;256.40;1280.00;;;;;;5053790;28;19991;-69
2022/02/26 01:00:59;;;;;;;;;;;256.40;1280.00;;;;;;5053834;28;20350;-69
2022/02/26 01:03:25;;;;;;;;;;;256.40;1280.00;;;;;;5053787;28;20047;-69
2022/02/26 01:05:50;;;;;;;;;;;256.40;1280.00;;;;;;5053902;28;19962;-69
2022/02/26 01:08:16;;;;;;;;;;;256.40;1280.00;;;;;;5053588;28;19905;-69
2022/02/26 01:10:42;;;;;;;;;;;256.40;1280.00;;;;;;5053733;28;19905;-69
2022/02/26 01:13:08;;;;;;;;;;;256.40;1280.00;;;;;;5053938;28;19983;-69
2022/02/26 01:15:33;;;;;;;;;;;256.40;1280.00;;;;;;5053930;28;19940;-69
2022/02/26 01:17:59;;;;;;;;;;;256.40;1280.00;;;;;;5053849;28;19911;-69
2022/02/26 01:20:25;;;;;;;;;;;256.40;1280.00;;;;;;5053042;28;19905;-68
2022/02/26 01:22:50;;;;;;;;;;;256.40;1280.00;;;;;;5053504;28;19958;-68
2022/02/26 01:25:16;;;;;;;;;;;256.30;1280.00;;;;;;5053655;28;20321;-68
2022/02/26 01:27:41;;;;;;;;;;;256.30;1305.60;;;;;;5053615;28;19996;-69
2022/02/26 01:30:08;;;;;;;;;;;256.20;1305.60;;;;;;5053683;28;19913;-69
2022/02/26 01:32:35;;;;;;;;;;;256.30;1305.60;;;;;;5053658;28;19905;-68
2022/02/26 01:35:00;;;;;;;;;;;256.30;1331.20;;;;;;5035541;28;19958;-68
2022/02/26 01:37:26;;;;;;;;;;;256.20;1331.20;;;;;;5053339;28;19909;-68
2022/02/26 01:39:52;;;;;;;;;;;256.20;1331.20;;;;;;5055235;28;19905;-68
2022/02/26 01:42:21;;;;;;;;;;;256.20;1331.20;;;;;;5057405;28;19919;-68
2022/02/26 01:44:48;;;;;;;;;;;256.20;1331.20;;;;;;5057213;28;20004;-68
2022/02/26 01:47:13;;;;;;;;;;;256.20;1356.80;;;;;;5057133;28;19917;-68
2022/02/26 01:49:39;;;;;;;;;;;256.20;1356.80;;;;;;5057107;28;19911;-68
2022/02/26 01:52:05;;;;;;;;;;;256.20;1356.80;;;;;;5057370;28;19904;-68
2022/02/26 01:54:30;;;;;;;;;;;256.10;1356.80;;;;;;5057237;28;20320;-68
2022/02/26 01:56:56;;;;;;;;;;;256.10;1382.40;;;;;;5039185;28;19905;-67
2022/02/26 01:59:22;;;;;;;;;;;256.00;1382.40;;;;;;5057150;28;19905;-68
2022/02/26 02:01:47;;;;;;;;;;;256.00;1382.40;;;;;;5056937;28;20446;-67
2022/02/26 02:04:14;;;;;;;;;;;256.00;1408.00;;;;;;5056867;28;19911;-67
2022/02/26 02:06:40;;;;;;;;;;;256.00;1408.00;;;;;;5056874;28;19992;-68
2022/02/26 02:09:06;;;;;;;;;;;256.00;1408.00;;;;;;5056904;28;19974;-68
2022/02/26 02:11:33;;;;;;;;;;;231.30;1433.60;;;;;;5056752;28;19912;-68
2022/02/26 02:13:59;;;;;;;;;;;256.00;1433.60;;;;;;5056771;28;19904;-67
2022/02/26 02:16:25;;;;;;;;;;;231.30;1433.60;;;;;;5056749;28;19905;-68
2022/02/26 02:18:50;;;;;;;;;;;231.30;1433.60;;;;;;5038869;28;19905;-68
2022/02/26 02:21:16;;;;;;;;;;;231.30;1459.20;;;;;;5056556;28;19999;-68
2022/02/26 02:23:42;;;;;;;;;;;231.30;1459.20;;;;;;5056045;28;20321;-68
2022/02/26 02:26:08;;;;;;;;;;;231.30;1459.20;;;;;;5038123;28;19915;-68
2022/02/26 02:28:34;;;;;;;;;;;231.20;1484.80;;;;;;5056421;28;19904;-67
2022/02/26 02:30:59;;;;;;;;;;;231.20;1484.80;;;;;;5038532;28;20007;-68
2022/02/26 02:33:25;;;;;;;;;;;231.20;1484.80;;;;;;5056307;28;19908;-67
2022/02/26 02:35:50;;;;;;;;;;;231.20;1484.80;;;;;;5038390;28;19904;-68
2022/02/26 02:38:16;;;;;;;;;;;231.20;1510.40;;;;;;5037792;28;20393;-68
2022/02/26 02:40:43;;;;;;;;;;;231.20;1510.40;;;;;;5056053;28;19948;-68
2022/02/26 02:43:10;;;;;;;;;;;231.10;1510.40;;;;;;5056206;28;19983;-67
2022/02/26 02:45:36;;;;;;;;;;;231.10;1510.40;;;;;;5056169;28;19959;-68
2022/02/26 02:48:02;;;;;;;;;;;231.10;1510.40;;;;;;5056024;28;19917;-67
2022/02/26 02:50:28;;;;;;;;;;;231.10;1510.40;;;;;;5055846;28;19991;-67
2022/02/26 02:52:53;;;;;;;;;;;231.10;1510.40;;;;;;5055918;28;20459;-67
2022/02/26 02:55:21;;;;;;;;;;;231.10;1510.40;;;;;;5037980;28;19905;-69
2022/02/26 02:57:48;;;;;;;;;;;231.10;1510.40;;;;;;5055909;28;19905;-66
2022/02/26 03:00:14;;;;;;;;;;;231.00;1510.40;;;;;;5055882;28;20405;-65
2022/02/26 03:02:40;;;;;;;;;;;231.00;1510.40;;;;;;5055822;28;19919;-66
2022/02/26 03:05:06;;;;;;;;;;;231.00;1510.40;;;;;;5055719;28;19912;-65
2022/02/26 03:07:32;;;;;;;;;;;231.00;1510.40;;;;;;5055548;28;20378;-66
2022/02/26 03:09:57;;;;;;;;;;;231.00;1510.40;;;;;;5037919;28;19905;-65
2022/02/26 03:12:23;;;;;;;;;;;231.00;1510.40;;;;;;5037786;28;20400;-66
2022/02/26 03:14:48;;;;;;;;;;;231.00;1510.40;;;;;;5037773;28;19931;-65
2022/02/26 03:17:14;;;;;;;;;;;231.00;1510.40;;;;;;5055923;28;19905;-66
2022/02/26 03:19:39;;;;;;;;;;;231.00;1510.40;;;;;;5055452;28;19905;-66
2022/02/26 03:22:05;;;;;;;;;;;231.00;1536.00;;;;;;5055216;28;20032;-66
2022/02/26 03:24:31;;;;;;;;;;;231.00;1510.40;;;;;;5055373;28;19912;-66
2022/02/26 03:26:57;;;;;;;;;;;231.00;1536.00;;;;;;5055264;28;19904;-65
2022/02/26 03:29:23;;;;;;;;;;;231.00;1536.00;;;;;;5054885;28;19912;-66
2022/02/26 03:31:49;;;;;;;;;;;231.00;1536.00;;;;;;5054924;28;19908;-66
2022/02/26 03:34:14;;;;;;;;;;;231.00;1561.60;;;;;;5054638;28;19996;-66
2022/02/26 03:36:40;;;;;;;;;;;231.00;1536.00;;;;;;5054831;28;19905;-66
2022/02/26 03:39:05;;;;;;;;;;;231.00;1561.60;;;;;;5055183;28;19938;-65
2022/02/26 03:41:31;;;;;;;;;;;231.00;1561.60;;;;;;5054755;28;19937;-65
2022/02/26 03:43:56;;;;;;;;;;;231.00;1536.00;;;;;;5055199;28;19917;-66
2022/02/26 03:46:23;;;;;;;;;;;231.00;1561.60;;;;;;5054805;28;19917;-66
2022/02/26 03:48:52;;;;;;;;;;;231.00;1561.60;;;;;;5054989;28;19951;-66
2022/02/26 03:51:18;;;;;;;;;;;231.00;1561.60;;;;;;5054660;28;19905;-66
2022/02/26 03:53:43;;;;;;;;;;;231.00;1561.60;;;;;;5054238;28;19905;-66
2022/02/26 03:56:09;;;;;;;;;;;231.00;1561.60;;;;;;5054929;28;19905;-65
2022/02/26 03:58:34;;;;;;;;;;;231.00;1587.20;;;;;;5054900;28;19905;-65
2022/02/26 04:01:00;;;;;;;;;;;231.00;1561.60;;;;;;5054100;28;19971;-67
2022/02/26 04:03:25;;;;;;;;;;;231.00;1587.20;;;;;;5053886;28;19913;-65
2022/02/26 04:05:51;;;;;;;;;;;231.00;1587.20;;;;;;5054814;28;19905;-63
2022/02/26 04:08:17;;;;;;;;;;;231.00;1561.60;;;;;;5054124;28;19911;-64
2022/02/26 04:10:42;;;;;;;;;;;231.00;1587.20;;;;;;5036312;28;19905;-63
2022/02/26 04:13:08;;;;;;;;;;;231.00;1561.60;;;;;;5054799;28;20003;-63
2022/02/26 04:15:33;;;;;;;;;;;231.00;1561.60;;;;;;5054502;28;19905;-63
2022/02/26 04:17:59;;;;;;;;;;;231.00;1561.60;;;;;;5054501;28;19912;-63
2022/02/26 04:20:25;;;;;;;;;;;230.90;1587.20;;;;;;5054665;28;19968;-67
2022/02/26 04:22:50;;;;;;;;;;;231.00;1587.20;;;;;;5054444;28;19913;-67
2022/02/26 04:25:16;;;;;;;;;;;231.00;1587.20;;;;;;5054764;28;19909;-66
2022/02/26 04:27:41;;;;;;;;;;;231.00;1587.20;;;;;;5054142;28;19960;-66
2022/02/26 04:30:08;;;;;;;;;;;231.00;1612.80;;;;;;5054241;28;19931;-66
2022/02/26 04:32:35;;;;;;;;;;;231.00;1587.20;;;;;;5054262;28;19995;-66
2022/02/26 04:35:00;;;;;;;;;;;231.00;1587.20;;;;;;5054310;28;19905;-66
2022/02/26 04:37:26;;;;;;;;;;;231.00;1587.20;;;;;;5054209;28;19905;-66
2022/02/26 04:39:52;;;;;;;;;;;231.00;1587.20;;;;;;5036365;28;19905;-66
2022/02/26 04:42:18;;;;;;;;;;;231.00;1587.20;;;;;;5053883;28;20412;-66
2022/02/26 04:44:44;;;;;;;;;;;231.00;1587.20;;;;;;5054162;28;19912;-66
2022/02/26 04:47:11;;;;;;;;;;;231.00;1587.20;;;;;;5053750;28;20364;-65
2022/02/26 04:49:36;;;;;;;;;;;231.00;1587.20;;;;;;5054169;28;19927;-65
2022/02/26 04:52:02;;;;;;;;;;;231.00;1587.20;;;;;;5035912;28;19905;-66
2022/02/26 04:54:28;;;;;;;;;;;231.00;1587.20;;;;;;5053914;28;19904;-66
2022/02/26 04:56:53;;;;;;;;;;;231.00;1561.60;;;;;;5053684;28;19911;-65
2022/02/26 04:59:19;;;;;;;;;;;231.00;1587.20;;;;;;5053193;28;19904;-65
2022/02/26 05:01:44;;;;;;;;;;;231.00;1561.60;;;;;;5035862;28;19939;-65
2022/02/26 05:04:10;;;;;;;;;;;231.00;1561.60;;;;;;5054055;28;20006;-65
2022/02/26 05:06:35;;;;;;;;;;;231.00;1561.60;;;;;;5053738;28;19905;-65
2022/02/26 05:09:01;;;;;;;;;;;231.00;1587.20;;;;;;5053836;28;19905;-65
2022/02/26 05:11:27;;;;;;;;;;;231.00;1561.60;;;;;;5035831;28;20371;-65
2022/02/26 05:13:52;;;;;;;;;;;231.00;1561.60;;;;;;5054879;28;19947;-65
2022/02/26 05:16:18;;;;;;;;;;;231.00;1561.60;;;;;;5039851;28;20004;-65
2022/02/26 05:18:43;;;;;;;;;;;231.00;1561.60;;;;;;5057999;28;19905;-65
2022/02/26 05:21:09;;;;;;;;;;;231.00;1561.60;;;;;;5057630;28;19939;-64
2022/02/26 05:23:34;;;;;;;;;;;231.00;1561.60;;;;;;5056787;28;19920;-65
2022/02/26 05:26:00;;;;;;;;;;;231.00;1536.00;;;;;;5057601;28;19904;-65
2022/02/26 05:28:25;;;;;;;;;;;231.00;1536.00;;;;;;5057798;28;19958;-66
2022/02/26 05:30:51;;;;;;;;;;;231.00;1536.00;;;;;;5057506;28;20005;-65
2022/02/26 05:33:16;;;;;;;;;;;230.90;1536.00;;;;;;5057752;28;19905;-65
2022/02/26 05:35:42;;;;;;;;;;;231.00;1536.00;;;;;;5057504;28;20369;-65
2022/02/26 05:38:08;;;;;;;;;;;231.00;1536.00;;;;;;5057312;28;19952;-65
2022/02/26 05:40:33;;;;;;;;;;;231.00;1561.60;;;;;;5057499;28;19913;-65
2022/02/26 05:42:59;;;;;;;;;;;231.00;1561.60;;;;;;5057413;28;19912;-65
2022/02/26 05:45:24;;;;;;;;;;;231.00;1561.60;;;;;;5056666;28;19912;-65
2022/02/26 05:47:50;;;;;;;;;;;231.00;1536.00;;;;;;5057173;28;19992;-65
2022/02/26 05:50:15;;;;;;;;;;;231.00;1536.00;;;;;;5056588;28;19959;-65
2022/02/26 05:52:41;;;;;;;;;;;231.00;1536.00;;;;;;5057162;28;19904;-65
2022/02/26 05:55:07;;;;;;;;;;;231.00;1536.00;;;;;;5056701;28;19911;-65
2022/02/26 05:57:33;;;;;;;;;;;231.00;1536.00;;;;;;5057119;28;20266;-66
2022/02/26 05:59:59;;;;;;;;;;;231.00;1536.00;;;;;;5057271;28;19909;-66
2022/02/26 06:02:24;;;;;;;;;;;231.00;1536.00;;;;;;5039029;28;20035;-66
2022/02/26 06:04:50;;;;;;;;;;;231.00;1510.40;;;;;;5056899;28;20334;-66
2022/02/26 06:07:15;;;;;;;;;;;231.00;1510.40;;;;;;5056820;28;19950;-63
2022/02/26 06:09:41;;;;;;;;;;;231.00;1536.00;;;;;;5056823;28;19904;-64
2022/02/26 06:12:07;;;;;;;;;;;230.90;1510.40;;;;;;5056605;28;20270;-63
2022/02/26 06:14:33;;;;;;;;;;;230.90;1536.00;;;;;;5056517;28;19904;-63
2022/02/26 06:16:58;;;;;;;;;;;230.80;1536.00;;;;;;5056544;28;19912;-64
2022/02/26 06:19:24;;;;;;;;;;;230.80;1510.40;;;;;;5056669;28;19912;-62
2022/02/26 06:21:50;;;;;;;;;;;230.80;1536.00;;;;;;5055750;28;19913;-63
2022/02/26 06:24:16;;;;;;;;;;;230.80;1510.40;;;;;;5056613;28;19910;-63
2022/02/26 06:26:41;;;;;;;;;;;230.80;1536.00;;;;;;5055324;28;19912;-63
2022/02/26 06:29:07;;;;;;;;;;;230.80;1536.00;;;;;;5056226;28;19905;-66
2022/02/26 06:31:33;;;;;;;;;;;230.80;1536.00;;;;;;5056404;28;19912;-63
2022/02/26 06:33:58;;;;;;;;;;;230.80;1536.00;;;;;;5056252;28;19909;-63
2022/02/26 06:36:24;;;;;;;;;;;230.80;1536.00;;;;;;5055821;28;19905;-64
2022/02/26 06:38:49;;;;;;;;;;;230.80;1536.00;;;;;;5056393;28;19982;-64
2022/02/26 06:41:15;;;;;;;;;;;230.70;1536.00;;;;;;5056389;28;19904;-64
2022/02/26 06:43:41;;;;;;;;;;;230.70;1536.00;;;;;;5055885;28;19913;-65
2022/02/26 06:46:08;;;;;;;;;;;230.70;1536.00;;;;;;5055901;28;19958;-65
2022/02/26 06:48:34;;;;;;;;;;;230.80;1536.00;;;;;;5056222;28;19916;-65
2022/02/26 06:51:00;;;;;;;;;;;230.80;1536.00;;;;;;5055849;28;19904;-64
2022/02/26 06:53:25;;;;;;;;;;;230.80;1536.00;;;;;;5055859;28;20007;-65
2022/02/26 06:55:51;;;;;;;;;;;231.20;1792.00;;;;;;5055850;28;19904;-62
2022/02/26 06:58:16;;;;;;;;;;;256.00;1561.60;;;;;;5056236;28;20227;-62
2022/02/26 07:00:42;;;;;;;;;;;256.00;1484.80;;;;;;5055804;28;19905;-66
2022/02/26 07:03:07;;;;;;;;;;;256.30;1536.00;;;;;;5055330;28;20016;-64
2022/02/26 07:05:33;;;;;;;;;;;256.10;1459.20;;;;;;5055937;28;19905;-65
2022/02/26 07:07:58;;;;;;;;;;;256.00;1459.20;;;;;;5055769;28;20354;-64
2022/02/26 07:10:24;;;;;;;;;;;231.30;1459.20;;;;;;5055699;28;19904;-64
2022/02/26 07:12:50;;;;;;;;;;;231.20;1459.20;;;;;;5055803;28;19905;-64
2022/02/26 07:15:15;;;;;;;;;;;231.20;1459.20;;;;;;5037315;28;19911;-64
2022/02/26 07:17:41;;;;;;;;;;;231.10;1484.80;;;;;;5055388;28;19958;-64
2022/02/26 07:20:07;;;;;;;;;;;231.10;1484.80;;;;;;5055269;28;19991;-64
2022/02/26 07:22:33;;;;;;;;;;;231.00;1484.80;;;;;;5041716;28;19923;-64
2022/02/26 07:24:58;;;;;;;;;;;231.00;1484.80;;;;;;5035153;28;20262;-64
2022/02/26 07:27:24;;;;;;;;;;;231.00;1510.40;;;;;;5036539;28;19916;-64
2022/02/26 07:29:49;;;;;;;;;;;231.00;1484.80;;;;;;5049181;28;19912;-70
2022/02/26 07:32:15;;;;;;;;;;;230.90;1510.40;;;;;;5055567;28;19904;-64
2022/02/26 07:34:40;;;;;;;;;;;230.90;1510.40;;;;;;5055415;28;19905;-69
2022/02/26 07:37:06;;;;;;;;;;;231.00;1484.80;;;;;;5053625;28;19972;-64
2022/02/26 07:39:31;;;;;;;;;;;231.00;1536.00;;;;;;5055147;28;19929;-64
2022/02/26 07:41:57;;;;;;;;;;;231.00;1510.40;;;;;;5054996;28;20317;-64
2022/02/26 07:44:23;;;;;;;;;;;231.00;1484.80;;;;;;5055120;28;19913;-64
2022/02/26 07:46:48;;;;;;;;;;;231.00;1484.80;;;;;;5054647;28;19916;-67
2022/02/26 07:49:14;;;;;;;;;;;230.90;1484.80;;;;;;5055091;28;20257;-65
2022/02/26 07:51:39;;;;;;;;;;;230.90;1484.80;;;;;;5054903;28;19928;-65
2022/02/26 07:54:05;;;;;;;;;;;230.80;1484.80;;;;;;5054993;28;19908;-65
2022/02/26 07:56:31;;;;;;;;;;;230.80;1484.80;;;;;;5054706;28;19905;-63
2022/02/26 07:58:56;;;;;;;;;;;230.90;1510.40;;;;;;5054400;28;19904;-63
2022/02/26 08:01:22;;;;;;;;;;;230.90;1484.80;;;;;;5054812;28;19906;-63
2022/02/26 08:03:48;;;;;;;;;;;231.00;1484.80;;;;;;5054211;28;19913;-63
2022/02/26 08:06:13;;;;;;;;;;;231.00;1484.80;;;;;;5054393;28;19905;-63
2022/02/26 08:08:49;;;;;;;;;;;231.00;1459.20;;;;;;5111912;27;20399;-63
2022/02/26 08:11:15;;;;;;;;;;;231.00;1459.20;;;;;;5112172;28;20006;-63
2022/02/26 08:13:41;;;;;;;;;;;231.10;1433.60;;;;;;5111875;28;19915;-63
2022/02/26 08:16:08;;;;;;;;;;;231.20;1433.60;;;;;;5111930;28;19916;-63
2022/02/26 08:18:34;;;;;;;;;;;231.20;1408.00;;;;;;5111645;28;20055;-64
2022/02/26 08:20:59;;;;;;;;;;;231.20;1382.40;;;;;;5111538;28;19951;-63
2022/02/26 08:23:25;;;;;;;;;;;231.20;1382.40;;;;;;5111686;28;19955;-63
2022/02/26 08:25:50;;;;;;;;;;;231.20;1382.40;;;;;;5111532;28;19915;-63
2022/02/26 08:28:16;;;;;;;;;;;231.20;1356.80;;;;;;5111762;28;19916;-63
2022/02/26 08:30:41;;;;;;;;;;;231.20;1356.80;;;;;;5111625;28;20410;-63
2022/02/26 08:33:07;;;;;;;;;;;231.20;1356.80;;;;;;5111210;28;19915;-63
2022/02/26 08:35:33;;;;;;;;;;;231.20;1356.80;;;;;;5111421;28;19915;-63
2022/02/26 08:37:58;;;;;;;;;;;231.20;1356.80;;;;;;5111291;28;20395;-63
2022/02/26 08:40:24;;;;;;;;;;;231.30;1356.80;;;;;;5111491;28;19915;-63
2022/02/26 08:42:49;;;;;;;;;;;231.20;1356.80;;;;;;5109927;28;19908;-63
2022/02/26 08:45:15;;;;;;;;;;;231.20;1356.80;;;;;;5111136;28;20010;-63
2022/02/26 08:47:42;;;;;;;;;;;231.20;1356.80;;;;;;5111399;28;20325;-63
2022/02/26 08:50:09;;;;;;;;;;;231.30;1356.80;;;;;;5110951;28;19919;-63
2022/02/26 08:52:35;;;;;;;;;;;231.30;1356.80;;;;;;5111087;28;19955;-63
2022/02/26 08:55:00;;;;;;;;;;;231.30;1356.80;;;;;;5111190;28;19908;-63
2022/02/26 08:57:26;;;;;;;;;;;231.30;1331.20;;;;;;5111220;28;19947;-63
2022/02/26 08:59:51;;;;;;;;;;;256.00;1331.20;;;;;;5111120;28;19908;-66
2022/02/26 09:02:17;;;;;;;;;;;256.00;1331.20;;;;;;5111062;28;19994;-64
2022/02/26 09:04:43;;;;;;;;;;;256.00;1305.60;;;;;;5109637;28;19908;-65
2022/02/26 09:07:08;;;;;;;;;;;256.00;1305.60;;;;;;5110425;28;19924;-65
2022/02/26 09:09:34;;;;;;;;;;;256.00;1305.60;;;;;;5111051;28;19908;-64
2022/02/26 09:11:59;;;;;;;;;;;256.00;1305.60;;;;;;5110848;28;20378;-64
2022/02/26 09:14:25;;;;;;;;;;;256.00;1305.60;;;;;;5110865;28;19916;-64
2022/02/26 09:16:50;;;;;;;;;;;256.00;1305.60;;;;;;5109432;28;19912;-64
2022/02/26 09:19:16;;;;;;;;;;;256.00;1305.60;;;;;;5100872;28;19995;-64
2022/02/26 09:21:42;;;;;;;;;;;256.00;1305.60;;;;;;5095824;28;19912;-66
2022/02/26 09:24:07;;;;;;;;;;;256.00;1331.20;;;;;;5095800;28;19912;-64
2022/02/26 09:26:33;;;;;;;;;;;256.10;1305.60;;;;;;5095484;28;19943;-64
2022/02/26 09:28:58;;;;;;;;;;;256.20;1305.60;;;;;;5095479;28;19916;-64
2022/02/26 09:31:24;;;;;;;;;;;256.20;1305.60;;;;;;5095410;28;20264;-69
2022/02/26 09:33:50;;;;;;;;;;;256.10;1305.60;;;;;;5095215;28;19969;-64
2022/02/26 09:36:15;;;;;;;;;;;256.20;1305.60;;;;;;5097708;28;20308;-66
2022/02/26 09:38:42;;;;;;;;;;;256.20;1331.20;;;;;;5096585;28;19908;-65
2022/02/26 09:41:08;;;;;;;;;;;256.30;1305.60;;;;;;5096720;28;19983;-63
2022/02/26 09:43:33;;;;;;;;;;;256.30;1331.20;;;;;;5096722;28;19950;-63
2022/02/26 09:45:59;;;;;;;;;;;256.40;1331.20;;;;;;5096841;28;20041;-63
2022/02/26 09:48:25;;;;;;;;;;;256.50;1331.20;;;;;;5096596;28;19916;-63
2022/02/26 09:50:51;;;;;;;;;;;256.60;1305.60;;;;;;5096564;28;19954;-63
2022/02/26 09:53:17;;;;;;;;;;;256.60;1331.20;;;;;;5096465;28;19909;-63
2022/02/26 09:55:43;;;;;;;;;;;256.70;1331.20;;;;;;5096501;28;20288;-63
2022/02/26 09:58:09;;;;;;;;;;;256.80;1305.60;;;;;;5095070;28;19908;-63
2022/02/26 10:00:35;;;;;;;;;;;256.90;1305.60;;;;;;5096608;28;20264;-63
2022/02/26 10:03:01;;;;;;;;;;;281.60;1331.20;;;;;;5096179;28;19915;-64
2022/02/26 10:05:28;;;;;;;;;;;281.60;1331.20;;;;;;5095784;28;19912;-63
2022/02/26 10:07:54;;;;;;;;;;;281.80;1356.80;;;;;;5095938;28;19989;-63
2022/02/26 10:10:24;;;;;;;;;;;281.80;1331.20;;;;;;5096035;28;20373;-63
2022/02/26 10:12:51;;;;;;;;;;;281.90;1305.60;;;;;;5095506;28;20003;-63
2022/02/26 10:15:25;;;;;;;;;;;282.00;1305.60;;;;;;5095752;28;19911;-63
2022/02/26 10:17:58;;;;;;;;;;;282.10;1280.00;;;;;;5095093;28;19912;-64
2022/02/26 10:20:24;;;;;;;;;;;282.20;1356.80;;;;;;5096154;28;19912;-64
2022/02/26 10:22:50;;;;;;;;;;;282.30;1254.40;;;;;;5095837;28;19908;-64
2022/02/26 10:25:19;;;;;;;;;;;282.30;1254.40;;;;;;5094586;28;19908;-64
2022/02/26 10:27:47;;;;;;;;;;;282.30;1254.40;;;;;;5095622;28;19923;-64
2022/02/26 10:30:14;;;;;;;;;;;282.30;1228.80;;;;;;5095030;28;19908;-67
2022/02/26 10:32:41;;;;;;;;;;;282.40;1305.60;;;;;;5095811;28;20406;-63
2022/02/26 10:35:08;;;;;;;;;;;282.30;1280.00;;;;;;5095354;28;20010;-62
2022/02/26 10:37:33;;;;;;;;;;;282.30;1280.00;;;;;;5095198;28;20374;-63
2022/02/26 10:40:00;;;;;;;;;;;282.40;1280.00;;;;;;5095883;28;19908;-64
2022/02/26 10:42:28;;;;;;;;;;;282.40;1280.00;;;;;;5095670;28;20272;-64
2022/02/26 10:45:02;;;;;;;;;;;282.50;1280.00;;;;;;5095150;28;20324;-63
2022/02/26 10:47:29;;;;;;;;;;;282.50;1280.00;;;;;;5092483;28;19916;-64
2022/02/26 10:49:54;;;;;;;;;;;282.50;1280.00;;;;;;5094882;28;19915;-63
2022/02/26 10:52:20;;;;;;;;;;;282.50;1280.00;;;;;;5094929;28;19986;-64
2022/02/26 10:54:52;;;;;;;;;;;307.20;1305.60;;;;;;5094266;28;19912;-64
2022/02/26 10:57:18;;;;;;;;;;;307.20;1305.60;;;;;;5095417;28;19965;-64
2022/02/26 10:59:45;;;;;;;;;;;307.20;1280.00;;;;;;5094941;28;19912;-63
2022/02/26 11:02:22;;;;;;;;;;;307.20;1280.00;;;;;;5095112;28;19908;-63
2022/02/26 11:04:48;;;;;;;;;;;307.30;1305.60;;;;;;5095396;28;19912;-63
2022/02/26 11:07:14;;;;;;;;;;;307.30;1280.00;;;;;;5094722;28;19974;-63
2022/02/26 11:09:40;;;;;;;;;;;307.40;1280.00;;;;;;5095098;28;19912;-63
2022/02/26 11:12:07;;;;;;;;;;;307.40;1305.60;;;;;;5095241;28;20349;-63
2022/02/26 11:14:35;;;;;;;;;;;307.40;1280.00;;;;;;5095110;28;19915;-63
2022/02/26 11:17:01;;;;;;;;;;;307.40;1254.40;;;;;;5094788;28;19909;-63
2022/02/26 11:19:29;;;;;;;;;;;307.40;1254.40;;;;;;5094921;28;19916;-63
2022/02/26 11:21:56;;;;;;;;;;;307.40;1254.40;;;;;;5094921;28;19908;-64
2022/02/26 11:24:22;;;;;;;;;;;307.40;1280.00;;;;;;5095047;28;19915;-63
2022/02/26 11:26:48;;;;;;;;;;;307.40;1280.00;;;;;;5094904;28;19920;-63
2022/02/26 11:29:16;;;;;;;;;;;307.40;1254.40;;;;;;5094301;28;19920;-62
2022/02/26 11:31:47;;;;;;;;;;;307.50;1228.80;;;;;;5093936;28;19916;-62
2022/02/26 11:34:12;;;;;;;;;;;307.50;1228.80;;;;;;5094179;28;19908;-64
2022/02/26 11:36:45;;;;;;;;;;;307.50;1203.20;;;;;;5103091;28;19919;-64
2022/02/26 11:39:20;;;;;;;;;;;307.60;1203.20;;;;;;5100566;28;19974;-63
2022/02/26 11:41:45;;;;;;;;;;;307.60;1203.20;;;;;;5102780;28;19977;-63
2022/02/26 11:44:11;;;;;;;;;;;307.60;1203.20;;;;;;5104854;28;20361;-63
2022/02/26 11:46:39;;;;;;;;;;;307.70;1177.60;;;;;;5099481;28;19936;-63
2022/02/26 11:49:31;;;;;;;;;;;307.60;1177.60;;;;;;5091692;28;19912;-63
2022/02/26 11:51:57;;;;;;;;;;;307.60;1203.20;;;;;;5091666;28;20450;-63
2022/02/26 11:54:23;;;;;;;;;;;307.70;1228.80;;;;;;5093919;28;19909;-63
2022/02/26 11:56:55;;;;;;;;;;;307.70;1177.60;;;;;;5093520;28;19954;-63
2022/02/26 11:59:40;;;;;;;;;;;307.70;1203.20;;;;;;5092753;28;20406;-66
2022/02/26 12:02:08;;;;;;;;;;;307.70;1177.60;;;;;;5091949;28;19915;-60
2022/02/26 12:04:43;;;;;;;;;;;307.70;1177.60;;;;;;5090304;28;19995;-65
2022/02/26 12:07:09;;;;;;;;;;;307.80;1152.00;;;;;;5092167;28;19921;-61
2022/02/26 12:10:10;;;;;;;;;;;307.80;1177.60;;;;;;5091528;28;19920;-57
2022/02/26 12:12:36;;;;;;;;;;;307.80;1152.00;;;;;;5051084;28;20438;-63
2022/02/26 12:15:02;;;;;;;;;;;307.80;1203.20;;;;;;5051926;28;20003;-60
2022/02/26 12:17:28;;;;;;;;;;;307.80;1177.60;;;;;;5056712;28;19917;-63
2022/02/26 12:19:54;;;;;;;;;;;307.80;1152.00;;;;;;5050559;28;19924;-63
2022/02/26 12:22:22;;;;;;;;;;;307.80;1152.00;;;;;;5046982;28;20415;-63
2022/02/26 12:24:49;;;;;;;;;;;307.80;1126.40;;;;;;5050925;28;19916;-58
2022/02/26 12:27:15;;;;;;;;;;;307.80;1152.00;;;;;;5051262;28;20370;-63
2022/02/26 12:29:40;;;;;;;;;;;307.70;1177.60;;;;;;5051142;28;19944;-63
2022/02/26 12:32:07;;;;;;;;;;;307.70;1126.40;;;;;;5051366;28;19915;-65
2022/02/26 12:34:37;;;;;;;;;;;307.60;1126.40;;;;;;5049991;28;20379;-59
2022/02/26 12:37:07;;;;;;;;;;;308.00;1664.00;;;;;;5050133;28;19909;-57
2022/02/26 12:39:35;;;;;;;;;;;333.00;1587.20;;;;;;5049803;28;19932;-64
2022/02/26 12:42:01;;;;;;;;;;;333.20;1280.00;;;;;;5050038;28;19908;-64
2022/02/26 12:44:26;;;;;;;;;;;333.20;1126.40;;;;;;5050215;28;19968;-74
2022/02/26 12:46:52;;;;;;;;;;;333.10;1126.40;;;;;;5077879;28;19916;-67
2022/02/26 12:49:18;;;;;;;;;;;333.10;1126.40;;;;;;5093924;28;19908;-61
2022/02/26 12:51:43;;;;;;;;;;;333.00;1100.80;;;;;;5093370;28;19962;-59
2022/02/26 12:54:13;;;;;;;;;;;333.00;1126.40;;;;;;5095266;28;19908;-61
2022/02/26 12:56:39;;;;;;;;;;;332.90;1100.80;;;;;;5097549;28;19919;-61
2022/02/26 12:59:14;;;;;;;;;;;333.20;1254.40;;;;;;5097496;28;20427;-60
2022/02/26 13:01:41;;;;;;;;;;;333.20;1100.80;;;;;;5097220;28;19993;-59
2022/02/26 13:04:11;;;;;;;;;;;333.10;1100.80;;;;;;5096045;28;20717;-61
2022/02/26 13:06:37;;;;;;;;;;;333.10;1100.80;;;;;;5093268;28;19912;-61
2022/02/26 13:09:04;;;;;;;;;;;333.10;1100.80;;;;;;5094558;28;19912;-60
2022/02/26 13:11:30;;;;;;;;;;;333.00;1100.80;;;;;;5095702;28;19908;-60
2022/02/26 13:14:05;;;;;;;;;;;333.00;1100.80;;;;;;5096035;28;19931;-60
2022/02/26 13:16:31;;;;;;;;;;;333.00;1100.80;;;;;;5095672;28;19961;-60
2022/02/26 13:18:57;;;;;;;;;;;332.90;1126.40;;;;;;5095916;28;19912;-59
2022/02/26 13:21:22;;;;;;;;;;;332.90;1100.80;;;;;;5095873;28;19915;-61
2022/02/26 13:23:49;;;;;;;;;;;332.90;1126.40;;;;;;5095640;28;19916;-61
2022/02/26 13:26:24;;;;;;;;;;;332.90;1152.00;;;;;;5093005;28;19940;-61
2022/02/26 13:28:52;;;;;;;;;;;332.90;1100.80;;;;;;5093788;28;20288;-59
2022/02/26 13:31:18;;;;;;;;;;;333.10;1177.60;;;;;;5095631;28;19952;-60
2022/02/26 13:33:44;;;;;;;;;;;333.10;1075.20;;;;;;5094220;28;19916;-61
2022/02/26 13:36:10;;;;;;;;;;;333.00;1075.20;;;;;;5094571;28;19968;-60
2022/02/26 13:38:36;;;;;;;;;;;333.00;1100.80;;;;;;5096181;28;19920;-61
2022/02/26 13:41:09;;;;;;;;;;;332.90;1075.20;;;;;;5096502;28;19909;-59